Time;durP1;ratioP1;P1;durP2;ratioP2;P2;SDS_P1;SDS_P2;PMS_P1;PMS_P2;Temp;Humidity;BMP_temperature;BMP_pressure;BME280_temperature;BME280_humidity;BME280_pressure;Samples;Min_cycle;Max_cycle;Signal;HPM_P1;HPM_P2
2022/04/07 00:01:36;;;;;;;;;;;18.20;42.70;;;;;;464395;256;1252;-76
2022/04/07 00:03:38;;;;;;;;;;;18.20;42.60;;;;;;464495;256;2198;-76
2022/04/07 00:05:39;;;;;;;;;;;18.20;42.70;;;;;;464466;256;965;-76
2022/04/07 00:07:40;;;;;;;;;;;18.20;42.70;;;;;;464444;256;1116;-76
2022/04/07 00:09:42;;;;;;;;;;;18.20;42.60;;;;;;464489;257;953;-76
2022/04/07 00:11:43;;;;;;;;;;;18.10;42.70;;;;;;464433;256;1244;-76
2022/04/07 00:13:44;;;;;;;;;;;18.10;42.80;;;;;;464418;256;1040;-76
2022/04/07 00:15:46;;;;;;;;;;;18.10;42.90;;;;;;464423;256;984;-76
2022/04/07 00:17:47;;;;;;;;;;;18.10;42.90;;;;;;464399;256;1515;-76
2022/04/07 00:19:49;;;;;;;;;;;18.00;42.90;;;;;;464504;256;980;-76
2022/04/07 00:21:50;;;;;;;;;;;18.10;43.00;;;;;;464356;256;1476;-76
2022/04/07 00:23:51;;;;;;;;;;;18.00;42.90;;;;;;464459;256;2210;-76
2022/04/07 00:25:52;;;;;;;;;;;18.10;42.80;;;;;;464403;256;1228;-76
2022/04/07 00:27:54;;;;;;;;;;;18.20;42.80;;;;;;464409;256;1337;-77
2022/04/07 00:29:55;;;;;;;;;;;18.10;42.80;;;;;;464483;256;1176;-76
2022/04/07 00:31:57;;;;;;;;;;;18.20;42.50;;;;;;464398;256;1312;-76
2022/04/07 00:33:58;;;;;;;;;;;18.20;42.50;;;;;;464478;257;1323;-76
2022/04/07 00:35:59;;;;;;;;;;;18.10;42.70;;;;;;464391;256;1242;-77
2022/04/07 00:38:00;;;;;;;;;;;18.10;42.80;;;;;;464450;256;1070;-76
2022/04/07 00:40:02;;;;;;;;;;;18.10;42.80;;;;;;464490;256;1110;-76
2022/04/07 00:42:03;;;;;;;;;;;18.00;42.70;;;;;;464415;256;2128;-76
2022/04/07 00:44:08;;;;;;;;;;;18.10;42.70;;;;;;464414;256;1137;-76
2022/04/07 00:46:06;;;;;;;;;;;18.00;42.80;;;;;;464282;257;1495;-76
2022/04/07 00:48:08;;;;;;;;;;;18.10;42.90;;;;;;464481;256;1199;-76
2022/04/07 00:50:09;;;;;;;;;;;18.10;42.70;;;;;;464492;256;1088;-76
2022/04/07 00:52:10;;;;;;;;;;;18.00;42.80;;;;;;464431;256;1211;-77
2022/04/07 00:54:12;;;;;;;;;;;18.10;42.70;;;;;;464520;256;1016;-76
2022/04/07 00:56:13;;;;;;;;;;;18.00;42.80;;;;;;464459;256;1304;-76
2022/04/07 00:58:14;;;;;;;;;;;18.00;42.90;;;;;;464492;256;978;-76
2022/04/07 01:00:16;;;;;;;;;;;18.00;42.90;;;;;;464537;256;1162;-76
2022/04/07 01:02:17;;;;;;;;;;;18.10;42.80;;;;;;464502;256;2119;-76
2022/04/07 01:04:18;;;;;;;;;;;18.00;42.80;;;;;;464517;256;1271;-76
2022/04/07 01:06:20;;;;;;;;;;;18.20;42.80;;;;;;464476;256;1215;-77
2022/04/07 01:08:21;;;;;;;;;;;18.10;42.70;;;;;;464548;256;1122;-76
2022/04/07 01:10:23;;;;;;;;;;;18.10;42.70;;;;;;464519;256;1176;-76
2022/04/07 01:12:24;;;;;;;;;;;18.20;42.60;;;;;;464470;256;1205;-76
2022/04/07 01:14:25;;;;;;;;;;;18.20;42.70;;;;;;464515;256;1058;-77
2022/04/07 01:16:26;;;;;;;;;;;18.10;42.70;;;;;;464465;256;1264;-76
2022/04/07 01:18:28;;;;;;;;;;;18.10;42.80;;;;;;464473;256;1126;-76
2022/04/07 01:20:29;;;;;;;;;;;18.10;42.80;;;;;;464490;256;1113;-76
2022/04/07 01:22:30;;;;;;;;;;;18.10;42.80;;;;;;464452;256;2189;-76
2022/04/07 01:24:32;;;;;;;;;;;18.10;42.80;;;;;;464511;256;1041;-77
2022/04/07 01:26:33;;;;;;;;;;;18.10;42.90;;;;;;464437;256;1221;-76
2022/04/07 01:28:34;;;;;;;;;;;18.00;43.10;;;;;;464501;256;1231;-76
2022/04/07 01:30:36;;;;;;;;;;;18.00;43.00;;;;;;464490;256;1206;-76
2022/04/07 01:32:37;;;;;;;;;;;18.00;43.10;;;;;;464463;256;1112;-76
2022/04/07 01:34:39;;;;;;;;;;;17.90;43.20;;;;;;464484;256;1170;-76
2022/04/07 01:36:40;;;;;;;;;;;18.00;43.30;;;;;;464449;257;1456;-77
2022/04/07 01:38:41;;;;;;;;;;;18.00;43.30;;;;;;464493;256;961;-76
2022/04/07 01:40:42;;;;;;;;;;;17.90;43.30;;;;;;464461;256;1343;-76
2022/04/07 01:42:45;;;;;;;;;;;18.00;43.30;;;;;;464448;256;2143;-76
2022/04/07 01:44:45;;;;;;;;;;;18.00;43.30;;;;;;464541;257;1414;-76
2022/04/07 01:46:47;;;;;;;;;;;18.00;43.30;;;;;;464370;256;1204;-77
2022/04/07 01:48:48;;;;;;;;;;;18.00;43.30;;;;;;464518;256;1202;-76
2022/04/07 01:50:49;;;;;;;;;;;18.10;43.40;;;;;;464418;256;1502;-76
2022/04/07 01:52:50;;;;;;;;;;;18.10;43.20;;;;;;464430;256;1157;-76
2022/04/07 01:54:52;;;;;;;;;;;18.10;43.10;;;;;;464542;256;964;-77
2022/04/07 01:56:53;;;;;;;;;;;18.00;43.20;;;;;;464426;256;1220;-76
2022/04/07 01:58:54;;;;;;;;;;;18.00;43.30;;;;;;464504;256;1090;-77
2022/04/07 02:00:56;;;;;;;;;;;18.10;43.30;;;;;;464405;256;1467;-76
2022/04/07 02:02:57;;;;;;;;;;;18.10;43.20;;;;;;464404;256;2206;-76
2022/04/07 02:04:58;;;;;;;;;;;18.20;43.20;;;;;;464492;256;1168;-76
2022/04/07 02:07:00;;;;;;;;;;;18.00;43.30;;;;;;464405;256;1076;-76
2022/04/07 02:09:02;;;;;;;;;;;18.00;43.40;;;;;;464498;256;1080;-76
2022/04/07 02:11:02;;;;;;;;;;;18.00;43.40;;;;;;464423;256;1408;-76
2022/04/07 02:13:04;;;;;;;;;;;17.90;43.60;;;;;;464487;256;1013;-76
2022/04/07 02:15:05;;;;;;;;;;;17.90;43.70;;;;;;464524;256;969;-76
2022/04/07 02:17:06;;;;;;;;;;;17.90;43.70;;;;;;464486;256;1121;-76
2022/04/07 02:19:08;;;;;;;;;;;18.00;43.70;;;;;;464512;256;1198;-76
2022/04/07 02:21:10;;;;;;;;;;;18.10;43.50;;;;;;464432;256;1271;-76
2022/04/07 02:23:11;;;;;;;;;;;18.10;43.30;;;;;;464446;256;2210;-77
2022/04/07 02:25:12;;;;;;;;;;;18.00;43.40;;;;;;464553;256;1054;-76
2022/04/07 02:27:14;;;;;;;;;;;18.00;43.60;;;;;;464480;256;1199;-77
2022/04/07 02:29:15;;;;;;;;;;;18.00;43.50;;;;;;464570;256;975;-76
2022/04/07 02:31:16;;;;;;;;;;;18.00;43.50;;;;;;464429;256;1212;-76
2022/04/07 02:33:18;;;;;;;;;;;18.10;43.60;;;;;;464471;256;1033;-76
2022/04/07 02:35:19;;;;;;;;;;;18.00;43.50;;;;;;464496;256;1195;-76
2022/04/07 02:37:20;;;;;;;;;;;18.10;43.60;;;;;;464380;256;1148;-76
2022/04/07 02:39:22;;;;;;;;;;;18.10;43.50;;;;;;464507;256;956;-77
2022/04/07 02:41:24;;;;;;;;;;;18.10;43.60;;;;;;464377;256;1227;-77
2022/04/07 02:43:24;;;;;;;;;;;18.00;43.70;;;;;;464471;256;2193;-77
2022/04/07 02:45:26;;;;;;;;;;;17.90;43.80;;;;;;464490;256;1063;-77
2022/04/07 02:47:27;;;;;;;;;;;17.90;43.80;;;;;;464547;256;1101;-76
2022/04/07 02:49:28;;;;;;;;;;;17.90;43.90;;;;;;464451;256;1220;-76
2022/04/07 02:51:31;;;;;;;;;;;17.90;43.90;;;;;;464367;256;1356;-76
2022/04/07 02:53:31;;;;;;;;;;;17.90;44.00;;;;;;464445;257;1489;-76
2022/04/07 02:55:32;;;;;;;;;;;18.10;43.80;;;;;;464489;256;962;-76
2022/04/07 02:57:34;;;;;;;;;;;18.00;43.70;;;;;;464506;256;1230;-76
2022/04/07 02:59:35;;;;;;;;;;;18.00;43.60;;;;;;464472;256;1044;-76
2022/04/07 03:01:36;;;;;;;;;;;18.10;43.60;;;;;;464360;256;1163;-76
2022/04/07 03:03:38;;;;;;;;;;;18.00;43.70;;;;;;464502;256;2128;-76
2022/04/07 03:05:39;;;;;;;;;;;18.00;43.70;;;;;;464430;256;1202;-76
2022/04/07 03:07:40;;;;;;;;;;;18.00;43.70;;;;;;464462;256;1162;-76
2022/04/07 03:09:42;;;;;;;;;;;17.90;43.90;;;;;;464481;256;996;-76
2022/04/07 03:11:43;;;;;;;;;;;17.90;43.80;;;;;;464505;256;1112;-76
2022/04/07 03:13:44;;;;;;;;;;;18.00;43.80;;;;;;464519;256;1074;-76
2022/04/07 03:15:45;;;;;;;;;;;18.00;44.00;;;;;;464477;256;1015;-76
2022/04/07 03:17:47;;;;;;;;;;;18.00;43.80;;;;;;464452;256;1075;-76
2022/04/07 03:19:48;;;;;;;;;;;18.00;43.80;;;;;;464452;256;1418;-76
2022/04/07 03:21:49;;;;;;;;;;;18.00;43.90;;;;;;464358;256;1032;-76
2022/04/07 03:23:51;;;;;;;;;;;17.90;43.90;;;;;;464460;256;2218;-76
2022/04/07 03:25:52;;;;;;;;;;;17.90;44.20;;;;;;464448;256;1148;-77
2022/04/07 03:27:53;;;;;;;;;;;17.90;44.10;;;;;;464478;256;975;-77
2022/04/07 03:29:55;;;;;;;;;;;17.90;43.90;;;;;;464467;256;1241;-76
2022/04/07 03:31:56;;;;;;;;;;;17.90;43.90;;;;;;464482;256;1070;-76
2022/04/07 03:33:57;;;;;;;;;;;18.00;44.00;;;;;;464482;256;1174;-76
2022/04/07 03:35:59;;;;;;;;;;;17.90;44.10;;;;;;464407;256;1172;-76
2022/04/07 03:38:00;;;;;;;;;;;17.90;44.10;;;;;;464463;256;1174;-76
2022/04/07 03:40:02;;;;;;;;;;;17.80;44.20;;;;;;464499;256;968;-76
2022/04/07 03:42:03;;;;;;;;;;;17.80;44.30;;;;;;464437;256;1379;-76
2022/04/07 03:44:07;;;;;;;;;;;17.90;44.20;;;;;;464465;256;2206;-76
2022/04/07 03:46:05;;;;;;;;;;;18.00;44.10;;;;;;464235;257;1465;-76
2022/04/07 03:48:07;;;;;;;;;;;18.00;44.00;;;;;;464458;256;1165;-76
2022/04/07 03:50:08;;;;;;;;;;;18.00;44.00;;;;;;464509;256;1232;-76
2022/04/07 03:52:09;;;;;;;;;;;18.00;44.00;;;;;;464470;256;1156;-76
2022/04/07 03:54:11;;;;;;;;;;;17.90;44.00;;;;;;464546;256;1030;-76
2022/04/07 03:56:12;;;;;;;;;;;17.90;44.20;;;;;;464430;256;1223;-76
2022/04/07 03:58:13;;;;;;;;;;;17.80;44.30;;;;;;464451;256;1104;-76
2022/04/07 04:00:16;;;;;;;;;;;17.80;44.30;;;;;;464415;256;1042;-76
2022/04/07 04:02:16;;;;;;;;;;;17.90;44.10;;;;;;464461;257;1496;-76
2022/04/07 04:04:20;;;;;;;;;;;17.90;44.20;;;;;;464388;256;2198;-76
2022/04/07 04:06:19;;;;;;;;;;;17.80;44.30;;;;;;464260;257;1466;-76
2022/04/07 04:08:20;;;;;;;;;;;17.80;44.30;;;;;;464361;256;1064;-77
2022/04/07 04:10:21;;;;;;;;;;;17.80;44.20;;;;;;464331;256;1201;-77
2022/04/07 04:12:23;;;;;;;;;;;17.80;44.20;;;;;;464355;256;1240;-77
2022/04/07 04:14:24;;;;;;;;;;;17.80;44.20;;;;;;464335;256;1013;-77
2022/04/07 04:16:25;;;;;;;;;;;17.80;44.20;;;;;;464332;256;1241;-77
2022/04/07 04:18:26;;;;;;;;;;;17.90;44.00;;;;;;464385;256;995;-77
2022/04/07 04:20:28;;;;;;;;;;;17.90;44.00;;;;;;464317;256;1173;-77
2022/04/07 04:22:29;;;;;;;;;;;17.80;44.00;;;;;;464267;256;1080;-77
2022/04/07 04:24:30;;;;;;;;;;;17.80;44.10;;;;;;464287;256;2191;-77
2022/04/07 04:26:32;;;;;;;;;;;17.80;44.00;;;;;;464198;256;1232;-77
2022/04/07 04:28:33;;;;;;;;;;;17.90;43.80;;;;;;464268;256;1184;-77
2022/04/07 04:30:35;;;;;;;;;;;17.90;43.70;;;;;;464269;256;1345;-77
2022/04/07 04:32:36;;;;;;;;;;;17.80;43.80;;;;;;464329;256;1340;-76
2022/04/07 04:34:37;;;;;;;;;;;17.80;44.00;;;;;;464269;256;1046;-77
2022/04/07 04:36:38;;;;;;;;;;;17.80;43.90;;;;;;464144;256;1155;-77
2022/04/07 04:38:40;;;;;;;;;;;17.80;43.80;;;;;;464250;256;1170;-77
2022/04/07 04:40:41;;;;;;;;;;;17.80;43.60;;;;;;464311;256;1268;-76
2022/04/07 04:42:43;;;;;;;;;;;17.80;43.60;;;;;;464212;256;1189;-77
2022/04/07 04:44:45;;;;;;;;;;;17.80;43.50;;;;;;464123;256;2120;-77
2022/04/07 04:46:45;;;;;;;;;;;17.80;43.60;;;;;;463824;257;1503;-77
2022/04/07 04:48:46;;;;;;;;;;;17.80;43.50;;;;;;464242;256;1095;-77
2022/04/07 04:50:48;;;;;;;;;;;17.70;43.60;;;;;;464165;256;1508;-77
2022/04/07 04:52:49;;;;;;;;;;;17.70;43.50;;;;;;464115;256;1181;-77
2022/04/07 04:54:50;;;;;;;;;;;17.80;43.40;;;;;;464245;256;992;-77
2022/04/07 04:56:52;;;;;;;;;;;17.80;43.30;;;;;;464157;256;1069;-77
2022/04/07 04:58:53;;;;;;;;;;;17.80;43.20;;;;;;464192;256;1056;-77
2022/04/07 05:00:54;;;;;;;;;;;17.90;43.30;;;;;;464090;256;1248;-77
2022/04/07 05:02:55;;;;;;;;;;;17.70;43.30;;;;;;464195;256;1016;-77
2022/04/07 05:04:57;;;;;;;;;;;17.70;43.30;;;;;;464153;256;2190;-78
2022/04/07 05:06:58;;;;;;;;;;;17.70;43.30;;;;;;464105;256;1173;-77
2022/04/07 05:09:00;;;;;;;;;;;17.80;43.30;;;;;;464169;256;1024;-77
2022/04/07 05:11:01;;;;;;;;;;;17.70;43.30;;;;;;464034;256;1240;-77
2022/04/07 05:13:02;;;;;;;;;;;17.80;43.30;;;;;;464141;256;1115;-76
2022/04/07 05:15:04;;;;;;;;;;;17.80;43.20;;;;;;464147;256;1012;-76
2022/04/07 05:17:05;;;;;;;;;;;17.70;43.20;;;;;;464042;256;1359;-76
2022/04/07 05:19:06;;;;;;;;;;;17.70;43.40;;;;;;464129;256;1019;-76
2022/04/07 05:21:07;;;;;;;;;;;17.60;43.40;;;;;;464125;256;1231;-76
2022/04/07 05:23:09;;;;;;;;;;;17.70;43.30;;;;;;464131;256;1069;-76
2022/04/07 05:25:10;;;;;;;;;;;17.70;43.10;;;;;;464007;256;2195;-76
2022/04/07 05:27:11;;;;;;;;;;;17.70;43.20;;;;;;464025;256;1178;-76
2022/04/07 05:29:13;;;;;;;;;;;17.80;43.20;;;;;;464159;256;1068;-76
2022/04/07 05:31:14;;;;;;;;;;;17.60;43.30;;;;;;464103;256;1192;-76
2022/04/07 05:33:17;;;;;;;;;;;17.70;43.20;;;;;;464154;256;1107;-76
2022/04/07 05:35:17;;;;;;;;;;;17.70;43.10;;;;;;464053;257;1410;-76
2022/04/07 05:37:18;;;;;;;;;;;17.80;43.00;;;;;;464118;256;1169;-76
2022/04/07 05:39:19;;;;;;;;;;;17.80;42.80;;;;;;464192;256;1055;-76
2022/04/07 05:41:20;;;;;;;;;;;17.80;42.80;;;;;;464184;256;1235;-76
2022/04/07 05:43:22;;;;;;;;;;;17.50;43.10;;;;;;464067;256;1065;-76
2022/04/07 05:45:23;;;;;;;;;;;17.40;43.30;;;;;;464108;256;2127;-76
2022/04/07 05:47:24;;;;;;;;;;;17.40;43.40;;;;;;464089;256;1233;-76
2022/04/07 05:49:26;;;;;;;;;;;17.40;43.50;;;;;;464017;256;1002;-76
2022/04/07 05:51:27;;;;;;;;;;;17.30;43.50;;;;;;463908;253;1346;-76
2022/04/07 05:53:28;;;;;;;;;;;17.30;43.70;;;;;;463983;256;1315;-77
2022/04/07 05:55:30;;;;;;;;;;;17.20;43.70;;;;;;463973;256;1069;-77
2022/04/07 05:57:31;;;;;;;;;;;17.60;43.30;;;;;;463987;256;1171;-57
2022/04/07 05:59:32;;;;;;;;;;;17.80;42.90;;;;;;464086;256;1022;-58
2022/04/07 06:01:34;;;;;;;;;;;17.90;42.60;;;;;;464036;256;1161;-57
2022/04/07 06:03:36;;;;;;;;;;;17.90;42.40;;;;;;464098;256;1118;-57
2022/04/07 06:05:37;;;;;;;;;;;17.90;42.50;;;;;;464129;256;2119;-55
2022/04/07 06:07:39;;;;;;;;;;;17.90;42.40;;;;;;464086;256;1226;-58
2022/04/07 06:09:40;;;;;;;;;;;17.80;42.50;;;;;;463942;256;1072;-58
2022/04/07 06:11:41;;;;;;;;;;;17.70;42.70;;;;;;463877;256;1226;-58
2022/04/07 06:13:43;;;;;;;;;;;17.60;42.80;;;;;;464040;256;1080;-58
2022/04/07 06:15:44;;;;;;;;;;;17.50;43.00;;;;;;464044;256;1117;-58
2022/04/07 06:17:46;;;;;;;;;;;17.50;43.10;;;;;;464087;256;1235;-58
2022/04/07 06:19:47;;;;;;;;;;;17.40;43.20;;;;;;463949;256;1125;-58
2022/04/07 06:21:48;;;;;;;;;;;17.40;43.20;;;;;;463959;256;1185;-58
2022/04/07 06:23:50;;;;;;;;;;;17.50;43.20;;;;;;463953;256;1092;-58
2022/04/07 06:25:51;;;;;;;;;;;17.50;43.20;;;;;;463788;256;2147;-58
2022/04/07 06:27:52;;;;;;;;;;;17.40;43.10;;;;;;463868;256;1135;-58
2022/04/07 06:29:54;;;;;;;;;;;17.50;43.10;;;;;;463854;256;1218;-58
2022/04/07 06:31:55;;;;;;;;;;;17.40;43.20;;;;;;463631;256;1275;-58
2022/04/07 06:33:56;;;;;;;;;;;17.40;43.30;;;;;;463815;256;1082;-58
2022/04/07 06:35:58;;;;;;;;;;;17.30;43.30;;;;;;463627;256;1141;-58
2022/04/07 06:37:59;;;;;;;;;;;17.30;43.40;;;;;;463887;256;1194;-58
2022/04/07 06:40:01;;;;;;;;;;;17.30;43.50;;;;;;463961;256;1166;-58
2022/04/07 06:42:03;;;;;;;;;;;17.20;43.60;;;;;;463854;256;1262;-58
2022/04/07 06:44:04;;;;;;;;;;;17.20;43.60;;;;;;463894;256;1114;-58
2022/04/07 06:46:06;;;;;;;;;;;17.30;43.50;;;;;;463573;256;2184;-57
2022/04/07 06:48:06;;;;;;;;;;;17.30;43.40;;;;;;463575;256;1514;-57
2022/04/07 06:50:08;;;;;;;;;;;17.30;43.40;;;;;;463790;256;1129;-58
2022/04/07 06:52:09;;;;;;;;;;;17.30;43.40;;;;;;463731;256;1366;-58
2022/04/07 06:54:10;;;;;;;;;;;17.40;43.40;;;;;;463636;256;1083;-58
2022/04/07 06:56:12;;;;;;;;;;;17.30;43.30;;;;;;463644;256;1431;-58
2022/04/07 06:58:13;;;;;;;;;;;17.30;43.40;;;;;;463638;256;1115;-58
2022/04/07 07:00:14;;;;;;;;;;;17.30;43.50;;;;;;463575;256;1091;-58
2022/04/07 07:02:16;;;;;;;;;;;17.30;43.50;;;;;;463551;256;1327;-58
2022/04/07 07:04:17;;;;;;;;;;;17.30;43.50;;;;;;463613;256;2202;-58
2022/04/07 07:06:18;;;;;;;;;;;17.20;43.40;;;;;;463519;256;1345;-58
2022/04/07 07:08:20;;;;;;;;;;;17.30;43.40;;;;;;463787;256;1215;-58
2022/04/07 07:10:21;;;;;;;;;;;17.30;43.30;;;;;;463772;256;1128;-58
2022/04/07 07:12:22;;;;;;;;;;;17.40;43.20;;;;;;463826;256;1101;-58
2022/04/07 07:14:23;;;;;;;;;;;17.40;43.20;;;;;;463740;256;1124;-58
2022/04/07 07:16:26;;;;;;;;;;;17.40;43.20;;;;;;463531;256;1369;-57
2022/04/07 07:18:27;;;;;;;;;;;17.40;43.20;;;;;;463649;257;2062;-58
2022/04/07 07:20:28;;;;;;;;;;;17.40;43.20;;;;;;463572;256;1199;-58
2022/04/07 07:22:29;;;;;;;;;;;17.40;43.30;;;;;;463513;256;1244;-57
2022/04/07 07:24:31;;;;;;;;;;;17.40;43.20;;;;;;463690;256;2198;-59
2022/04/07 07:26:32;;;;;;;;;;;17.40;43.10;;;;;;463645;256;1215;-59
2022/04/07 07:28:33;;;;;;;;;;;17.40;43.10;;;;;;463638;256;2055;-57
2022/04/07 07:30:34;;;;;;;;;;;17.50;42.90;;;;;;463627;256;1210;-67
2022/04/07 07:32:36;;;;;;;;;;;17.50;42.80;;;;;;463647;256;1245;-67
2022/04/07 07:34:37;;;;;;;;;;;17.40;42.90;;;;;;463626;256;1436;-67
2022/04/07 07:36:38;;;;;;;;;;;17.40;43.00;;;;;;463618;256;1239;-66
2022/04/07 07:38:40;;;;;;;;;;;17.40;43.00;;;;;;463713;256;1200;-66
2022/04/07 07:40:41;;;;;;;;;;;17.40;43.00;;;;;;463631;256;1215;-67
2022/04/07 07:42:42;;;;;;;;;;;17.40;42.80;;;;;;463665;256;1750;-67
2022/04/07 07:44:44;;;;;;;;;;;17.30;43.10;;;;;;463625;256;2206;-67
2022/04/07 07:46:45;;;;;;;;;;;17.30;43.00;;;;;;463706;256;1320;-68
2022/04/07 07:48:46;;;;;;;;;;;17.30;43.00;;;;;;463593;256;1098;-68
2022/04/07 07:50:48;;;;;;;;;;;17.20;43.10;;;;;;463597;256;1360;-68
2022/04/07 07:52:49;;;;;;;;;;;17.30;43.00;;;;;;463835;256;1057;-68
2022/04/07 07:54:50;;;;;;;;;;;17.30;42.80;;;;;;463575;256;1058;-68
2022/04/07 07:56:52;;;;;;;;;;;17.30;42.70;;;;;;463535;256;1370;-68
2022/04/07 07:58:53;;;;;;;;;;;17.30;42.70;;;;;;463511;256;1079;-68
2022/04/07 08:00:55;;;;;;;;;;;17.30;42.70;;;;;;463536;256;1377;-65
2022/04/07 08:02:56;;;;;;;;;;;17.30;42.80;;;;;;463746;257;1251;-65
2022/04/07 08:04:57;;;;;;;;;;;17.20;42.70;;;;;;463519;256;2198;-66
2022/04/07 08:06:59;;;;;;;;;;;17.20;42.70;;;;;;463528;256;1236;-66
2022/04/07 08:09:00;;;;;;;;;;;17.20;42.60;;;;;;463645;256;1318;-65
2022/04/07 08:11:02;;;;;;;;;;;17.30;42.40;;;;;;463450;256;1427;-65
2022/04/07 08:13:03;;;;;;;;;;;17.40;42.10;;;;;;463608;256;1055;-66
2022/04/07 08:15:05;;;;;;;;;;;17.40;42.00;;;;;;463742;257;1017;-66
2022/04/07 08:17:05;;;;;;;;;;;17.40;41.90;;;;;;463540;256;1135;-66
2022/04/07 08:19:09;;;;;;;;;;;17.40;41.80;;;;;;463759;256;1172;-66
2022/04/07 08:21:08;;;;;;;;;;;17.40;41.90;;;;;;463448;257;1304;-66
2022/04/07 08:23:09;;;;;;;;;;;17.40;41.80;;;;;;463692;256;1231;-66
2022/04/07 08:25:11;;;;;;;;;;;17.70;41.10;;;;;;463397;256;2201;-65
2022/04/07 08:27:13;;;;;;;;;;;18.50;39.20;;;;;;463339;256;1092;-66
2022/04/07 08:29:14;;;;;;;;;;;19.40;37.50;;;;;;463530;256;1084;-66
2022/04/07 08:31:16;;;;;;;;;;;20.00;36.30;;;;;;463410;256;1123;-65
2022/04/07 08:33:17;;;;;;;;;;;20.10;36.30;;;;;;463559;256;1425;-66
2022/04/07 08:35:18;;;;;;;;;;;20.00;36.50;;;;;;463416;256;1155;-66
2022/04/07 08:37:20;;;;;;;;;;;20.10;36.20;;;;;;463406;256;1232;-66
2022/04/07 08:39:21;;;;;;;;;;;20.20;36.10;;;;;;463550;256;1221;-66
2022/04/07 08:41:22;;;;;;;;;;;20.20;36.10;;;;;;463428;256;1088;-66
2022/04/07 08:43:23;;;;;;;;;;;20.30;35.80;;;;;;463516;256;1167;-66
2022/04/07 08:45:25;;;;;;;;;;;20.40;35.40;;;;;;463575;256;2202;-66
2022/04/07 08:47:26;;;;;;;;;;;20.40;35.60;;;;;;463732;256;1292;-66
2022/04/07 08:49:28;;;;;;;;;;;20.30;35.60;;;;;;463875;256;1092;-66
2022/04/07 08:51:29;;;;;;;;;;;20.30;35.60;;;;;;463556;256;1389;-66
2022/04/07 08:53:30;;;;;;;;;;;20.30;35.70;;;;;;463574;256;1159;-66
2022/04/07 08:55:32;;;;;;;;;;;20.30;35.50;;;;;;463571;256;1023;-66
2022/04/07 08:57:33;;;;;;;;;;;20.40;35.20;;;;;;463749;256;1180;-66
2022/04/07 08:59:35;;;;;;;;;;;20.40;35.30;;;;;;463647;256;1058;-67
2022/04/07 09:01:36;;;;;;;;;;;20.50;35.10;;;;;;463632;256;1232;-66
2022/04/07 09:03:37;;;;;;;;;;;20.50;35.20;;;;;;463653;256;1201;-68
2022/04/07 09:05:38;;;;;;;;;;;20.50;35.00;;;;;;463604;256;2158;-69
2022/04/07 09:07:40;;;;;;;;;;;20.60;34.90;;;;;;463691;256;2411;-69
2022/04/07 09:09:42;;;;;;;;;;;20.60;34.70;;;;;;463741;256;1234;-69
2022/04/07 09:11:43;;;;;;;;;;;20.70;34.60;;;;;;463794;256;1331;-69
2022/04/07 09:13:45;;;;;;;;;;;20.80;34.50;;;;;;463555;256;1089;-67
2022/04/07 09:15:46;;;;;;;;;;;20.80;34.40;;;;;;463479;256;1228;-69
2022/04/07 09:17:48;;;;;;;;;;;20.70;34.40;;;;;;463489;256;1122;-68
2022/04/07 09:19:49;;;;;;;;;;;20.80;34.30;;;;;;463717;256;1050;-68
2022/04/07 09:21:50;;;;;;;;;;;20.90;34.10;;;;;;463582;256;1236;-68
2022/04/07 09:23:52;;;;;;;;;;;20.80;34.30;;;;;;463665;256;1159;-68
2022/04/07 09:25:53;;;;;;;;;;;20.70;34.20;;;;;;463610;256;2319;-68
2022/04/07 09:27:57;;;;;;;;;;;20.90;34.00;;;;;;463682;256;1152;-68
2022/04/07 09:29:56;;;;;;;;;;;20.90;34.00;;;;;;463452;257;1502;-68
2022/04/07 09:31:57;;;;;;;;;;;21.00;33.90;;;;;;463642;256;1114;-68
2022/04/07 09:34:00;;;;;;;;;;;21.10;33.80;;;;;;463671;256;1077;-68
2022/04/07 09:36:00;;;;;;;;;;;21.00;33.80;;;;;;463620;256;1351;-68
2022/04/07 09:38:01;;;;;;;;;;;21.10;33.60;;;;;;463660;256;1121;-68
2022/04/07 09:40:02;;;;;;;;;;;21.10;33.70;;;;;;463695;256;1103;-68
2022/04/07 09:42:04;;;;;;;;;;;21.20;33.50;;;;;;463684;256;1215;-68
2022/04/07 09:44:06;;;;;;;;;;;21.20;33.40;;;;;;463836;256;1349;-68
2022/04/07 09:46:06;;;;;;;;;;;21.20;33.40;;;;;;463640;256;2147;-69
2022/04/07 09:48:08;;;;;;;;;;;21.20;33.50;;;;;;463642;256;1115;-67
2022/04/07 09:50:10;;;;;;;;;;;21.30;33.40;;;;;;463655;256;1129;-62
2022/04/07 09:52:10;;;;;;;;;;;21.20;33.50;;;;;;463632;256;1177;-66
2022/04/07 09:54:12;;;;;;;;;;;21.20;33.30;;;;;;463530;256;1201;-67
2022/04/07 09:56:13;;;;;;;;;;;21.10;33.50;;;;;;463446;256;1292;-66
2022/04/07 09:58:14;;;;;;;;;;;21.10;33.70;;;;;;463566;256;1139;-65
2022/04/07 10:00:16;;;;;;;;;;;21.10;33.60;;;;;;463644;256;1071;-65
2022/04/07 10:02:17;;;;;;;;;;;21.20;33.40;;;;;;463600;256;1238;-65
2022/04/07 10:04:18;;;;;;;;;;;21.10;33.50;;;;;;463548;256;1116;-65
2022/04/07 10:06:20;;;;;;;;;;;21.10;33.50;;;;;;463574;256;2139;-65
2022/04/07 10:08:22;;;;;;;;;;;21.10;33.50;;;;;;463639;256;1058;-65
2022/04/07 10:10:23;;;;;;;;;;;21.20;33.40;;;;;;463567;256;1205;-65
2022/04/07 10:12:25;;;;;;;;;;;21.20;33.30;;;;;;463664;256;1153;-65
2022/04/07 10:14:26;;;;;;;;;;;21.20;33.40;;;;;;463407;256;1110;-65
2022/04/07 10:16:27;;;;;;;;;;;21.30;33.10;;;;;;463331;256;1244;-65
2022/04/07 10:18:29;;;;;;;;;;;21.30;33.20;;;;;;463443;256;1131;-65
2022/04/07 10:20:32;;;;;;;;;;;21.40;33.00;;;;;;463392;256;1076;-66
2022/04/07 10:22:32;;;;;;;;;;;21.40;33.00;;;;;;463318;256;1414;-61
2022/04/07 10:24:33;;;;;;;;;;;21.40;33.00;;;;;;463325;256;1245;-63
2022/04/07 10:26:34;;;;;;;;;;;21.50;32.90;;;;;;463434;256;2214;-66
2022/04/07 10:28:36;;;;;;;;;;;21.50;32.80;;;;;;463821;256;1040;-64
2022/04/07 10:30:37;;;;;;;;;;;21.60;32.70;;;;;;463609;256;1217;-64
2022/04/07 10:32:39;;;;;;;;;;;21.60;32.80;;;;;;463829;256;1099;-69
2022/04/07 10:34:42;;;;;;;;;;;21.60;32.70;;;;;;463619;256;1068;-64
2022/04/07 10:36:43;;;;;;;;;;;21.40;32.90;;;;;;463464;257;1408;-64
2022/04/07 10:38:43;;;;;;;;;;;21.70;32.60;;;;;;463488;256;1989;-64
2022/04/07 10:40:45;;;;;;;;;;;21.70;32.50;;;;;;463371;256;1138;-64
2022/04/07 10:42:45;;;;;;;;;;;21.70;32.50;;;;;;463782;257;1523;-64
2022/04/07 10:44:47;;;;;;;;;;;21.70;32.60;;;;;;463600;256;1068;-64
2022/04/07 10:46:48;;;;;;;;;;;21.80;32.40;;;;;;463586;256;2139;-64
2022/04/07 10:48:49;;;;;;;;;;;21.80;32.40;;;;;;463689;256;1112;-64
2022/04/07 10:50:50;;;;;;;;;;;21.80;32.40;;;;;;463629;257;1163;-64
2022/04/07 10:52:52;;;;;;;;;;;21.80;32.20;;;;;;463660;256;1078;-64
2022/04/07 10:54:53;;;;;;;;;;;21.70;32.50;;;;;;463613;256;1366;-64
2022/04/07 10:56:56;;;;;;;;;;;21.70;32.40;;;;;;463586;256;1085;-64
2022/04/07 10:58:56;;;;;;;;;;;21.80;32.30;;;;;;463422;257;1355;-64
2022/04/07 11:00:57;;;;;;;;;;;21.70;32.30;;;;;;463601;256;1537;-64
2022/04/07 11:02:59;;;;;;;;;;;21.70;32.30;;;;;;463682;256;1100;-63
2022/04/07 11:05:00;;;;;;;;;;;21.90;32.00;;;;;;463629;256;1127;-63
2022/04/07 11:07:01;;;;;;;;;;;21.90;32.00;;;;;;463573;256;2163;-64
2022/04/07 11:09:03;;;;;;;;;;;21.80;32.10;;;;;;463587;256;1106;-63
2022/04/07 11:11:04;;;;;;;;;;;21.90;32.10;;;;;;463580;256;1285;-63
2022/04/07 11:13:05;;;;;;;;;;;21.90;32.10;;;;;;463561;256;1087;-64
2022/04/07 11:15:07;;;;;;;;;;;21.90;31.80;;;;;;463474;256;1223;-63
2022/04/07 11:17:08;;;;;;;;;;;22.00;31.70;;;;;;463579;256;1161;-64
2022/04/07 11:19:09;;;;;;;;;;;22.00;31.70;;;;;;463638;256;1422;-63
2022/04/07 11:21:11;;;;;;;;;;;22.00;31.70;;;;;;463651;256;1213;-65
2022/04/07 11:23:14;;;;;;;;;;;22.00;31.60;;;;;;463681;256;1215;-63
2022/04/07 11:25:14;;;;;;;;;;;22.10;31.60;;;;;;463385;257;1255;-63
2022/04/07 11:27:15;;;;;;;;;;;22.20;31.40;;;;;;463514;256;2210;-64
2022/04/07 11:29:16;;;;;;;;;;;22.00;31.60;;;;;;463393;256;1081;-64
2022/04/07 11:31:19;;;;;;;;;;;22.00;31.60;;;;;;463442;256;1235;-64
2022/04/07 11:33:19;;;;;;;;;;;22.10;31.50;;;;;;463353;257;1412;-63
2022/04/07 11:35:20;;;;;;;;;;;22.00;31.70;;;;;;463623;256;1055;-63
2022/04/07 11:37:22;;;;;;;;;;;22.00;31.70;;;;;;463563;256;1473;-64
2022/04/07 11:39:23;;;;;;;;;;;22.00;31.70;;;;;;463643;256;1098;-63
2022/04/07 11:41:24;;;;;;;;;;;22.00;31.50;;;;;;463620;256;1234;-64
2022/04/07 11:43:26;;;;;;;;;;;22.00;31.70;;;;;;463675;256;1084;-63
2022/04/07 11:45:27;;;;;;;;;;;21.90;31.70;;;;;;463697;256;1218;-64
2022/04/07 11:47:30;;;;;;;;;;;22.10;31.50;;;;;;463609;256;2222;-64
2022/04/07 11:49:30;;;;;;;;;;;21.90;31.70;;;;;;463402;257;1470;-64
2022/04/07 11:51:31;;;;;;;;;;;22.00;31.70;;;;;;463423;256;1203;-63
2022/04/07 11:53:33;;;;;;;;;;;22.00;31.70;;;;;;463859;256;1079;-64
2022/04/07 11:55:34;;;;;;;;;;;22.00;31.50;;;;;;463585;256;1336;-63
2022/04/07 11:57:37;;;;;;;;;;;22.20;31.30;;;;;;463726;256;1209;-63